Time;durP1;ratioP1;P1;durP2;ratioP2;P2;SDS_P1;SDS_P2;PMS_P1;PMS_P2;Temp;Humidity;BMP_temperature;BMP_pressure;BME280_temperature;BME280_humidity;BME280_pressure;Samples;Min_cycle;Max_cycle;Signal;HPM_P1;HPM_P2
2022/07/25 00:02:14;;;;;;;8.38;7.68;;;;;;;21.15;66.41;99875.44;5072954;28;20493;-61
2022/07/25 00:04:41;;;;;;;8.18;7.38;;;;;;;21.15;66.54;99875.44;5072622;28;20048;-61
2022/07/25 00:07:08;;;;;;;8.38;7.53;;;;;;;21.14;66.85;99873.81;5072832;28;20049;-61
2022/07/25 00:09:37;;;;;;;8.63;7.82;;;;;;;21.10;66.82;99875.81;5072424;28;20044;-61
2022/07/25 00:12:05;;;;;;;8.27;7.47;;;;;;;21.04;66.93;99880.25;5068215;28;20063;-60
2022/07/25 00:14:32;;;;;;;8.38;7.68;;;;;;;21.01;67.08;99870.53;5072285;28;20049;-61
2022/07/25 00:16:59;;;;;;;8.38;7.57;;;;;;;21.00;67.17;99863.28;5072109;28;20056;-60
2022/07/25 00:19:26;;;;;;;7.93;7.22;;;;;;;21.02;67.17;99868.50;5072463;28;20059;-61
2022/07/25 00:21:54;;;;;;;8.95;7.60;;;;;;;20.96;67.23;99861.66;5072422;28;20056;-60
2022/07/25 00:24:21;;;;;;;10.60;7.75;;;;;;;20.92;67.48;99867.28;5067269;28;20433;-61
2022/07/25 00:26:50;;;;;;;8.65;7.57;;;;;;;20.90;67.68;99866.88;5052204;28;20059;-61
2022/07/25 00:29:17;;;;;;;8.30;7.50;;;;;;;20.85;67.65;99856.75;5052327;28;20060;-61
2022/07/25 00:31:44;;;;;;;8.45;7.65;;;;;;;20.84;67.87;99854.31;5052188;28;20049;-61
2022/07/25 00:34:11;;;;;;;8.60;7.80;;;;;;;20.81;68.10;99855.94;5063533;28;20052;-60
2022/07/25 00:36:39;;;;;;;8.60;7.80;;;;;;;20.83;68.09;99858.34;5072120;28;20473;-61
2022/07/25 00:39:06;;;;;;;8.52;7.72;;;;;;;20.77;68.28;99848.66;5069139;28;20048;-61
2022/07/25 00:41:33;;;;;;;8.30;7.47;;;;;;;20.57;69.37;99843.28;5072011;28;20051;-61
2022/07/25 00:44:02;;;;;;;7.97;7.18;;;;;;;20.44;69.86;99834.34;5072072;28;20059;-61
2022/07/25 00:46:29;;;;;;;10.35;8.30;;;;;;;20.43;69.43;99829.91;5072335;28;20059;-60
2022/07/25 00:48:57;;;;;;;8.13;7.30;;;;;;;20.48;69.28;99825.88;5072280;28;20386;-61
2022/07/25 00:51:25;;;;;;;9.32;7.88;;;;;;;20.48;68.96;99825.88;5072178;28;20056;-61
2022/07/25 00:53:52;;;;;;;8.63;7.82;;;;;;;20.50;69.14;99831.94;5065389;28;20059;-61
2022/07/25 00:56:20;;;;;;;8.50;7.70;;;;;;;20.50;69.25;99826.28;5072077;28;20056;-61
2022/07/25 00:58:47;;;;;;;8.20;7.40;;;;;;;20.52;69.41;99814.56;5073245;28;20056;-61
2022/07/25 01:01:16;;;;;;;8.93;8.05;;;;;;;20.51;69.52;99815.78;5076198;28;20056;-61
2022/07/25 01:03:43;;;;;;;8.63;7.82;;;;;;;20.48;69.69;99823.03;5076060;28;20439;-61
2022/07/25 01:06:10;;;;;;;10.25;8.30;;;;;;;20.48;69.58;99820.22;5076230;28;20052;-61
2022/07/25 01:08:38;;;;;;;8.45;7.65;;;;;;;20.48;69.39;99826.66;5073238;28;20508;-61
2022/07/25 01:11:06;;;;;;;8.88;7.97;;;;;;;20.45;69.53;99806.84;5075201;28;20072;-61
2022/07/25 01:13:34;;;;;;;9.65;8.43;;;;;;;20.41;69.58;99815.34;5075549;28;20404;-61
2022/07/25 01:16:01;;;;;;;8.95;8.10;;;;;;;20.39;69.57;99809.25;5075792;28;20063;-61
2022/07/25 01:18:30;;;;;;;10.05;8.30;;;;;;;20.38;69.43;99816.13;5075934;28;20060;-61
2022/07/25 01:20:58;;;;;;;8.65;7.80;;;;;;;20.36;69.48;99809.25;5075587;28;20519;-61
2022/07/25 01:23:26;;;;;;;8.23;7.32;;;;;;;20.33;69.23;99807.22;5072341;28;20044;-61
2022/07/25 01:25:53;;;;;;;8.65;7.68;;;;;;;20.31;69.30;99809.63;5075317;28;20104;-61
2022/07/25 01:28:21;;;;;;;11.27;9.05;;;;;;;20.30;69.38;99808.00;5075762;28;20059;-61
2022/07/25 01:30:49;;;;;;;8.50;7.70;;;;;;;20.27;69.36;99810.41;5071158;28;20477;-61
2022/07/25 01:33:16;;;;;;;8.23;7.43;;;;;;;20.21;69.56;99808.38;5059214;28;20052;-61
2022/07/25 01:35:44;;;;;;;9.13;8.32;;;;;;;20.13;69.81;99809.53;5075415;28;20059;-61
2022/07/25 01:38:13;;;;;;;8.98;8.07;;;;;;;20.14;69.84;99811.13;5073009;28;20056;-61
2022/07/25 01:40:41;;;;;;;9.23;8.32;;;;;;;20.13;69.90;99798.22;5070424;28;20051;-61
2022/07/25 01:43:09;;;;;;;9.63;8.20;;;;;;;20.11;69.72;99800.63;5075448;28;20063;-61
2022/07/25 01:45:37;;;;;;;9.35;8.45;;;;;;;20.07;70.31;99792.97;5075125;28;20059;-61
2022/07/25 01:48:05;;;;;;;10.05;9.15;;;;;;;20.10;70.22;99802.66;5075368;28;20063;-60
2022/07/25 01:50:32;;;;;;;9.80;8.88;;;;;;;20.10;70.10;99799.03;5074905;28;20068;-61
2022/07/25 01:52:59;;;;;;;10.02;9.07;;;;;;;20.10;70.07;99796.19;5068810;28;20052;-61
2022/07/25 01:55:28;;;;;;;10.00;9.10;;;;;;;20.07;69.65;99790.13;5058554;28;20060;-61
2022/07/25 01:57:55;;;;;;;10.10;9.15;;;;;;;20.08;69.67;99785.28;5054823;28;20068;-61
2022/07/25 02:00:23;;;;;;;10.85;8.60;;;;;;;20.05;69.62;99783.22;5054923;28;20474;-61
2022/07/25 02:03:28;;;;;;;9.50;8.32;;;;;;;20.04;69.47;99779.59;5054787;28;20156;-60
2022/07/25 02:05:38;;;;;;;10.65;9.55;;;;;;;20.00;69.05;99777.97;5054335;28;20064;-61
2022/07/25 02:08:05;;;;;;;8.70;7.80;;;;;;;20.02;69.09;99786.88;5056027;28;20048;-62
2022/07/25 02:10:34;;;;;;;8.73;7.93;;;;;;;19.99;69.27;99784.81;5054609;28;20057;-61
2022/07/25 02:13:01;;;;;;;8.93;8.13;;;;;;;19.96;69.29;99777.94;5054781;28;20512;-61
2022/07/25 02:15:29;;;;;;;10.02;8.55;;;;;;;19.95;69.54;99782.00;5054462;28;20053;-61
2022/07/25 02:17:56;;;;;;;8.52;7.63;;;;;;;19.93;69.46;99781.56;5053745;28;20053;-61
2022/07/25 02:20:23;;;;;;;9.07;8.18;;;;;;;19.93;69.25;99775.09;5072121;28;20048;-61
2022/07/25 02:22:51;;;;;;;8.52;7.80;;;;;;;19.88;69.29;99770.63;5074256;28;20056;-61
2022/07/25 02:25:18;;;;;;;8.20;7.40;;;;;;;19.90;69.09;99773.06;5074419;28;20393;-60
2022/07/25 02:27:47;;;;;;;9.77;8.30;;;;;;;19.83;69.07;99762.53;5074384;28;20485;-61
2022/07/25 02:30:14;;;;;;;8.85;7.95;;;;;;;19.85;69.03;99766.56;5056941;28;20135;-60
2022/07/25 02:32:41;;;;;;;9.43;8.52;;;;;;;19.81;68.69;99768.56;5054248;28;20496;-61
2022/07/25 02:35:09;;;;;;;8.35;7.55;;;;;;;19.80;68.65;99764.13;5073749;28;20416;-61
2022/07/25 02:37:37;;;;;;;9.10;8.20;;;;;;;19.79;68.62;99762.50;5072890;28;20059;-61
2022/07/25 02:40:05;;;;;;;8.70;7.78;;;;;;;19.75;68.50;99760.88;5070500;28;20057;-65
2022/07/25 02:42:33;;;;;;;8.27;7.30;;;;;;;19.75;68.40;99758.03;5074314;28;20051;-61
2022/07/25 02:45:01;;;;;;;8.75;7.93;;;;;;;19.72;67.90;99751.16;5073899;28;20831;-61
2022/07/25 02:47:29;;;;;;;9.57;8.18;;;;;;;19.67;67.60;99748.66;5073940;28;20059;-61
2022/07/25 02:49:56;;;;;;;8.70;7.80;;;;;;;19.61;67.27;99738.94;5068613;28;20516;-61
2022/07/25 02:52:23;;;;;;;7.85;6.72;;;;;;;19.61;67.32;99731.28;5073863;28;20071;-61
2022/07/25 02:54:51;;;;;;;8.43;7.63;;;;;;;19.63;66.99;99719.59;5073402;28;20480;-61
2022/07/25 02:57:18;;;;;;;8.88;8.05;;;;;;;19.61;67.19;99730.47;5070961;28;20053;-61
2022/07/25 02:59:45;;;;;;;7.97;7.20;;;;;;;19.58;67.06;99731.28;5071476;28;20056;-61
2022/07/25 03:02:14;;;;;;;8.70;7.10;;;;;;;19.59;67.32;99730.88;5074109;28;20049;-61
2022/07/25 03:04:41;;;;;;;8.70;7.50;;;;;;;19.58;67.19;99732.06;5073263;28;20052;-61
2022/07/25 03:07:08;;;;;;;9.82;7.43;;;;;;;19.56;67.55;99722.38;5073859;28;20053;-60
2022/07/25 03:09:36;;;;;;;7.80;7.03;;;;;;;19.58;67.93;99728.44;5069064;28;20492;-61
2022/07/25 03:12:04;;;;;;;9.93;8.43;;;;;;;19.58;68.24;99719.97;5073534;28;20072;-61
2022/07/25 03:14:31;;;;;;;8.65;7.75;;;;;;;19.57;68.34;99715.50;5070008;28;20124;-61
2022/07/25 03:16:58;;;;;;;7.72;6.97;;;;;;;19.56;68.27;99719.56;5072832;28;20052;-61
2022/07/25 03:19:28;;;;;;;8.55;7.25;;;;;;;19.53;68.08;99720.31;5073393;28;20075;-61
2022/07/25 03:21:55;;;;;;;8.18;7.38;;;;;;;19.52;68.00;99727.19;5072703;28;20083;-61
2022/07/25 03:24:23;;;;;;;8.38;7.57;;;;;;;19.53;67.38;99720.31;5072408;28;20056;-61
2022/07/25 03:26:50;;;;;;;8.23;7.43;;;;;;;19.48;67.42;99719.50;5054036;28;20059;-60
2022/07/25 03:29:18;;;;;;;7.97;7.18;;;;;;;19.46;67.27;99715.44;5053030;28;20057;-61
2022/07/25 03:31:45;;;;;;;7.88;7.07;;;;;;;19.47;67.04;99714.25;5053116;28;20056;-61
2022/07/25 03:34:12;;;;;;;8.02;7.03;;;;;;;19.39;67.04;99704.13;5064913;28;20060;-61
2022/07/25 03:36:41;;;;;;;7.30;6.60;;;;;;;19.38;67.18;99708.13;5069791;28;20058;-61
2022/07/25 03:39:08;;;;;;;7.50;6.72;;;;;;;19.35;66.99;99712.56;5073043;28;20052;-61
2022/07/25 03:41:35;;;;;;;7.60;7.00;;;;;;;19.35;66.98;99703.28;5073069;28;20052;-61
2022/07/25 03:44:03;;;;;;;8.15;7.38;;;;;;;19.35;66.85;99695.59;5072918;28;20067;-61
2022/07/25 03:46:30;;;;;;;8.57;7.78;;;;;;;19.34;66.71;99699.66;5069776;28;20166;-61
2022/07/25 03:48:57;;;;;;;12.35;7.78;;;;;;;19.37;67.27;99700.88;5072789;28;20409;-61
2022/07/25 03:51:25;;;;;;;8.93;8.10;;;;;;;19.38;66.92;99692.00;5072976;28;20055;-61
2022/07/25 03:54:03;;;;;;;9.23;8.30;;;;;;;19.40;66.78;99695.25;5072353;28;20063;-61
2022/07/25 03:56:32;;;;;;;8.05;7.25;;;;;;;19.42;66.79;99692.84;5069425;28;20052;-61
2022/07/25 03:58:59;;;;;;;8.13;7.33;;;;;;;19.38;66.59;99683.53;5072321;28;20055;-60
2022/07/25 04:01:26;;;;;;;8.30;7.40;;;;;;;19.43;66.65;99677.50;5072493;28;20490;-60
2022/07/25 04:03:54;;;;;;;7.15;6.45;;;;;;;19.43;66.45;99683.16;5072534;28;20048;-61
2022/07/25 04:06:22;;;;;;;9.00;6.60;;;;;;;19.45;66.79;99671.47;5068607;28;20048;-61
2022/07/25 04:08:49;;;;;;;8.02;7.25;;;;;;;19.50;66.58;99673.09;5071257;28;20417;-61
2022/07/25 04:11:18;;;;;;;8.15;6.78;;;;;;;19.54;66.63;99668.28;5072493;28;20056;-61
2022/07/25 04:13:45;;;;;;;8.40;7.28;;;;;;;19.60;66.33;99669.53;5072390;28;20055;-61
2022/07/25 04:16:13;;;;;;;9.25;7.45;;;;;;;19.61;66.19;99659.84;5070907;28;20055;-61
2022/07/25 04:18:41;;;;;;;8.13;7.13;;;;;;;19.65;66.30;99660.66;5067637;28;20421;-61
2022/07/25 04:21:09;;;;;;;7.55;6.65;;;;;;;19.71;66.08;99666.78;5071906;28;20059;-61
2022/07/25 04:23:36;;;;;;;9.18;8.27;;;;;;;19.72;66.09;99665.56;5072407;28;20048;-61
2022/07/25 04:26:04;;;;;;;11.00;8.52;;;;;;;19.75;65.89;99657.13;5072282;28;20048;-61
2022/07/25 04:28:33;;;;;;;7.80;6.80;;;;;;;19.75;66.26;99648.63;5065256;28;20063;-61
2022/07/25 04:31:00;;;;;;;9.73;7.90;;;;;;;19.81;66.13;99660.38;5072026;28;20059;-61
2022/07/25 04:33:28;;;;;;;8.00;7.20;;;;;;;19.84;66.16;99651.91;5071079;28;20508;-61
2022/07/25 04:35:55;;;;;;;8.00;7.20;;;;;;;19.89;66.06;99652.75;5067955;28;20049;-61
2022/07/25 04:38:22;;;;;;;7.53;6.72;;;;;;;19.91;65.95;99650.31;5072371;28;20063;-61
2022/07/25 04:40:49;;;;;;;7.93;7.13;;;;;;;19.97;66.22;99643.88;5071825;28;20052;-61
2022/07/25 04:43:17;;;;;;;8.30;7.50;;;;;;;20.04;66.20;99640.28;5071831;28;20068;-61
2022/07/25 04:45:45;;;;;;;7.88;7.07;;;;;;;20.13;66.21;99639.88;5066411;28;20059;-61
2022/07/25 04:48:13;;;;;;;8.00;7.10;;;;;;;20.19;65.81;99638.28;5051348;28;20052;-61
2022/07/25 04:50:40;;;;;;;8.20;7.40;;;;;;;20.27;65.47;99637.91;5051712;28;20053;-61
2022/07/25 04:53:08;;;;;;;8.15;7.35;;;;;;;20.32;65.09;99631.03;5051341;28;20060;-61
2022/07/25 04:55:37;;;;;;;8.02;7.22;;;;;;;20.40;64.93;99629.84;5051738;28;20084;-61
2022/07/25 04:58:05;;;;;;;7.93;7.15;;;;;;;20.48;64.69;99628.63;5052128;28;20520;-61
2022/07/25 05:00:32;;;;;;;10.18;7.40;;;;;;;20.55;64.69;99625.00;5070864;28;20501;-61
2022/07/25 05:03:01;;;;;;;8.85;7.10;;;;;;;20.63;64.23;99626.66;5064349;28;20044;-61
2022/07/25 05:05:28;;;;;;;7.68;6.88;;;;;;;20.77;64.35;99614.53;5070112;28;20048;-61
2022/07/25 05:07:57;;;;;;;7.50;6.72;;;;;;;20.87;64.28;99618.56;5069785;28;20061;-61
2022/07/25 05:10:24;;;;;;;7.47;6.75;;;;;;;20.99;63.97;99608.84;5056719;28;20406;-61
2022/07/25 05:12:52;;;;;;;8.13;7.28;;;;;;;21.14;63.59;99618.13;5052648;28;20053;-61
2022/07/25 05:15:19;;;;;;;8.55;6.82;;;;;;;21.23;63.68;99610.00;5066712;28;20048;-61
2022/07/25 05:17:47;;;;;;;8.23;7.43;;;;;;;21.40;62.65;99617.66;5065221;28;20048;-60
2022/07/25 05:20:15;;;;;;;7.65;6.93;;;;;;;21.56;62.60;99605.88;5055361;28;20052;-60
2022/07/25 05:22:43;;;;;;;8.55;6.95;;;;;;;21.70;62.74;99602.19;5059199;28;20053;-61
2022/07/25 05:25:11;;;;;;;7.75;7.00;;;;;;;21.87;62.34;99606.16;5059955;28;20053;-60
2022/07/25 05:27:39;;;;;;;8.32;7.40;;;;;;;21.99;62.09;99600.03;5055962;28;20169;-47
2022/07/25 05:30:08;;;;;;;9.38;7.82;;;;;;;21.98;61.50;99594.75;5055005;28;20429;-49
2022/07/25 05:32:35;;;;;;;;;;;;;;;22.15;61.59;99596.69;5054868;28;20049;-50
2022/07/25 05:35:03;;;;;;;9.88;7.28;;;;;;;22.21;61.13;99589.34;5057956;28;19932;-49
2022/07/25 05:37:32;;;;;;;10.45;9.02;;;;;;;22.34;60.84;99591.72;5052286;28;20052;-48
2022/07/25 05:40:00;;;;;;;11.95;8.95;;;;;;;22.52;60.50;99597.28;5049199;28;20072;-46
2022/07/25 05:42:27;;;;;;;9.00;7.82;;;;;;;22.71;60.44;99591.03;5058929;28;20053;-48
2022/07/25 05:44:54;;;;;;;9.45;8.40;;;;;;;22.90;59.69;99581.13;5063009;28;20044;-61
2022/07/25 05:47:22;;;;;;;8.20;7.40;;;;;;;23.18;58.44;99577.22;5061149;28;20056;-61
2022/07/25 05:49:49;;;;;;;7.80;7.00;;;;;;;23.44;57.74;99577.75;5072787;28;20052;-61
2022/07/25 05:52:16;;;;;;;7.75;7.05;;;;;;;23.64;56.18;99572.19;5070945;28;20408;-60
2022/07/25 05:54:45;;;;;;;11.10;7.65;;;;;;;23.85;55.88;99577.63;5064260;28;20044;-60
2022/07/25 05:57:12;;;;;;;8.45;6.00;;;;;;;23.99;55.24;99576.63;5071556;28;20377;-61
2022/07/25 05:59:39;;;;;;;8.68;6.35;;;;;;;24.22;55.89;99564.50;5069436;28;20053;-61
2022/07/25 06:02:07;;;;;;;10.52;7.30;;;;;;;24.37;55.57;99569.97;5066317;28;20051;-61
2022/07/25 06:04:35;;;;;;;8.73;6.80;;;;;;;24.51;54.47;99570.56;5059312;28;20052;-61
2022/07/25 06:07:02;;;;;;;8.05;7.05;;;;;;;24.63;54.48;99574.88;5054600;28;20428;-60
2022/07/25 06:09:30;;;;;;;10.10;7.45;;;;;;;24.77;54.11;99565.25;5067857;28;20052;-60
2022/07/25 06:11:59;;;;;;;12.32;7.45;;;;;;;24.89;53.34;99569.53;5068806;28;20053;-61
2022/07/25 06:14:27;;;;;;;9.07;6.70;;;;;;;25.04;52.38;99570.06;5055326;28;20497;-61
2022/07/25 06:16:54;;;;;;;8.40;6.95;;;;;;;25.16;51.98;99569.44;5053982;28;20497;-60
2022/07/25 06:19:21;;;;;;;8.13;6.75;;;;;;;25.31;52.43;99565.06;5054440;28;20057;-61
2022/07/25 06:21:49;;;;;;;9.00;6.45;;;;;;;25.46;52.68;99564.78;5055197;28;20055;-61
2022/07/25 06:24:16;;;;;;;7.85;6.47;;;;;;;25.56;52.11;99562.97;5074269;28;20053;-61
2022/07/25 06:26:44;;;;;;;12.07;10.43;;;;;;;25.74;51.76;99560.53;5074302;28;20508;-61
2022/07/25 06:29:12;;;;;;;9.25;6.88;;;;;;;25.88;51.91;99556.56;5073994;28;20052;-61
2022/07/25 06:31:40;;;;;;;8.60;6.20;;;;;;;26.03;50.49;99554.22;5055578;28;20057;-60
2022/07/25 06:34:07;;;;;;;15.30;7.10;;;;;;;26.23;50.03;99559.88;5061889;28;20048;-60
2022/07/25 06:36:35;;;;;;;8.35;6.20;;;;;;;26.40;47.87;99552.13;5074294;28;20420;-60
2022/07/25 06:39:02;;;;;;;9.35;6.13;;;;;;;26.63;48.18;99554.81;5073487;28;20053;-61
2022/07/25 06:41:29;;;;;;;7.18;6.25;;;;;;;26.85;46.32;99554.25;5057758;28;20083;-61
2022/07/25 06:43:57;;;;;;;6.45;5.82;;;;;;;27.01;46.67;99551.38;5058625;28;20049;-61
2022/07/25 06:46:29;;;;;;;8.85;6.20;;;;;;;27.21;46.12;99556.13;5067425;28;20060;-59
2022/07/25 06:48:57;;;;;;;6.28;5.68;;;;;;;27.48;41.68;99550.09;5068250;28;20053;-60
2022/07/25 06:51:24;;;;;;;6.45;5.82;;;;;;;27.70;41.14;99544.53;5063732;28;20079;-59
2022/07/25 06:53:52;;;;;;;6.95;4.85;;;;;;;27.93;40.42;99549.97;5066354;28;20053;-60
2022/07/25 06:56:19;;;;;;;5.43;4.93;;;;;;;28.14;39.25;99536.25;5067086;28;20485;-60
2022/07/25 06:58:46;;;;;;;6.13;4.97;;;;;;;28.31;39.55;99542.66;5068238;28;20433;-60
2022/07/25 07:01:14;;;;;;;6.03;5.05;;;;;;;28.53;38.87;99531.31;5061829;28;20418;-60
2022/07/25 07:03:42;;;;;;;5.82;5.20;;;;;;;28.78;37.78;99530.44;5059503;28;20048;-60
2022/07/25 07:06:10;;;;;;;5.80;4.70;;;;;;;28.95;37.54;99528.22;5060674;28;20061;-60
2022/07/25 07:08:38;;;;;;;5.35;4.70;;;;;;;28.99;37.08;99526.00;5066447;28;20052;-60
2022/07/25 07:11:06;;;;;;;5.82;5.22;;;;;;;29.02;37.06;99527.16;5064956;28;20044;-60
2022/07/25 07:13:34;;;;;;;5.55;5.00;;;;;;;29.19;36.77;99522.06;5066130;28;20056;-60
2022/07/25 07:16:02;;;;;;;6.53;5.10;;;;;;;29.14;36.74;99518.50;5066990;28;20178;-61
2022/07/25 07:18:29;;;;;;;4.93;4.43;;;;;;;29.26;36.58;99522.59;5063702;28;20048;-60
2022/07/25 07:20:58;;;;;;;6.45;5.32;;;;;;;29.29;36.38;99523.72;5066988;28;20057;-60
2022/07/25 07:23:25;;;;;;;6.00;5.13;;;;;;;29.36;36.13;99529.22;5067088;28;20063;-60
2022/07/25 07:25:52;;;;;;;5.60;5.03;;;;;;;29.38;36.34;99515.19;5068567;28;20064;-60
2022/07/25 07:28:20;;;;;;;4.82;4.32;;;;;;;29.44;35.64;99518.25;5062575;28;20060;-60
2022/07/25 07:30:47;;;;;;;6.05;4.95;;;;;;;29.53;35.62;99532.69;5067559;28;20067;-60
2022/07/25 07:33:15;;;;;;;6.85;5.43;;;;;;;29.25;36.39;99528.78;5064028;28;20064;-60
2022/07/25 07:35:44;;;;;;;5.03;4.60;;;;;;;29.62;36.51;99529.06;5056158;28;20049;-60
2022/07/25 07:38:12;;;;;;;6.10;5.50;;;;;;;29.55;36.29;99519.44;5052498;28;20061;-61
2022/07/25 07:40:40;;;;;;;5.30;4.80;;;;;;;29.65;36.41;99513.75;5065455;28;20052;-60
2022/07/25 07:43:07;;;;;;;5.50;4.97;;;;;;;29.65;35.65;99511.72;5064133;28;20053;-60
2022/07/25 07:45:34;;;;;;;5.10;4.70;;;;;;;29.63;36.27;99513.44;5062465;28;20541;-60
2022/07/25 07:48:02;;;;;;;5.60;5.00;;;;;;;29.55;36.38;99505.09;5057216;28;20055;-60
2022/07/25 07:50:29;;;;;;;5.50;5.00;;;;;;;29.75;36.10;99507.63;5061058;28;20053;-59
2022/07/25 07:52:57;;;;;;;5.80;5.30;;;;;;;29.69;35.53;99506.63;5055240;28;20049;-60
2022/07/25 07:55:44;;;;;;;5.13;4.63;;;;;;;29.56;35.66;99517.38;5066424;28;20419;-60
2022/07/25 07:58:14;;;;;;;6.65;5.00;;;;;;;29.74;36.54;99517.53;5067161;28;20057;-59
2022/07/25 08:00:42;;;;;;;6.70;4.82;;;;;;;29.90;35.55;99516.50;5057901;28;20394;-60
2022/07/25 08:03:10;;;;;;;6.47;5.30;;;;;;;29.90;35.73;99516.50;5051956;28;20048;-60
2022/07/25 08:05:39;;;;;;;5.90;4.80;;;;;;;30.31;34.86;99514.44;5062940;28;20044;-60
2022/07/25 08:08:08;;;;;;;6.53;4.75;;;;;;;30.99;34.42;99512.81;5064828;28;20400;-60
2022/07/25 08:10:37;;;;;;;;;;;;;;;31.56;33.13;99513.09;5063170;28;20075;-60
2022/07/25 08:13:14;;;;;;;5.70;5.10;;;;;;;32.19;32.31;99506.84;5060512;28;19924;-61
2022/07/25 08:15:42;;;;;;;5.45;4.88;;;;;;;32.48;32.22;99509.06;5055018;28;20052;-61
2022/07/25 08:18:09;;;;;;;7.10;5.18;;;;;;;32.95;31.33;99496.75;5059715;28;20485;-61
2022/07/25 08:20:37;;;;;;;7.45;4.88;;;;;;;33.22;30.18;99497.03;5059472;28;20057;-61
2022/07/25 08:23:04;;;;;;;7.40;5.10;;;;;;;33.95;29.80;99490.47;5070323;28;20408;-61
2022/07/25 08:25:32;;;;;;;5.90;5.10;;;;;;;34.55;28.78;99484.56;5058549;28;20049;-61
2022/07/25 08:28:00;;;;;;;5.18;4.32;;;;;;;35.13;27.58;99481.84;5052345;28;20055;-61
2022/07/25 08:30:28;;;;;;;5.97;5.10;;;;;;;35.53;26.78;99483.09;5055392;28;20417;-61
2022/07/25 08:32:58;;;;;;;5.45;4.95;;;;;;;35.95;26.39;99493.22;5059910;28;20390;-61
2022/07/25 08:35:27;;;;;;;5.60;5.10;;;;;;;37.02;25.33;99490.16;5057760;28;20053;-61
2022/07/25 08:37:55;;;;;;;5.43;4.93;;;;;;;38.16;23.85;99495.66;5054415;28;20051;-60
2022/07/25 08:40:25;;;;;;;5.18;4.45;;;;;;;38.44;23.60;99486.88;5057304;28;20052;-61
2022/07/25 08:42:53;;;;;;;6.28;4.95;;;;;;;39.36;23.14;99494.72;5054476;28;20404;-62
2022/07/25 08:45:26;;;;;;;5.80;4.55;;;;;;;40.32;22.10;99483.09;5051987;28;20053;-61
2022/07/25 08:47:54;;;;;;;5.22;4.72;;;;;;;41.08;21.53;99480.34;5054194;28;20393;-62
2022/07/25 08:50:27;;;;;;;;;;;;;;;40.37;21.13;99485.16;5071736;28;20049;-61
2022/07/25 08:52:55;;;;;;;5.15;4.40;;;;;;;40.48;20.86;99489.28;5065240;28;19927;-60
2022/07/25 08:55:24;;;;;;;5.20;4.70;;;;;;;40.47;20.94;99497.25;5065564;28;20056;-61
2022/07/25 08:57:53;;;;;;;5.00;4.50;;;;;;;40.65;20.64;99486.94;5069267;28;20056;-62
2022/07/25 09:00:23;;;;;;;4.95;4.45;;;;;;;40.59;20.42;99486.22;5070154;28;20453;-61
2022/07/25 09:02:56;;;;;;;4.93;4.45;;;;;;;40.60;21.34;99490.75;5052494;28;20417;-62
2022/07/25 09:05:24;;;;;;;5.65;4.80;;;;;;;39.91;21.44;99492.75;5052436;28;20381;-60
2022/07/25 09:07:53;;;;;;;5.60;5.10;;;;;;;39.50;21.44;99484.03;5056537;28;20139;-61
2022/07/25 09:10:22;;;;;;;5.25;4.75;;;;;;;38.93;22.41;99477.69;5050632;28;20049;-61
2022/07/25 09:12:53;;;;;;;5.65;5.15;;;;;;;38.60;23.33;99484.44;5051397;28;20064;-61
2022/07/25 09:15:26;;;;;;;5.45;4.93;;;;;;;38.29;23.61;99484.25;5051635;28;20055;-61
2022/07/25 09:17:56;;;;;;;5.40;4.90;;;;;;;37.85;24.05;99480.06;5069279;28;20492;-61
2022/07/25 09:20:26;;;;;;;5.45;4.63;;;;;;;37.44;24.79;99473.94;5052999;28;20061;-62
2022/07/25 09:22:53;;;;;;;5.50;5.00;;;;;;;37.17;24.76;99479.97;5074709;28;20048;-61
2022/07/25 09:25:26;;;;;;;5.35;4.85;;;;;;;37.34;25.06;99479.22;5062008;28;20045;-61
2022/07/25 09:27:53;;;;;;;5.10;4.53;;;;;;;38.11;24.69;99485.59;5071782;28;20052;-61
2022/07/25 09:30:20;;;;;;;5.47;4.97;;;;;;;39.24;22.85;99490.28;5060396;28;20064;-61
2022/07/25 09:32:48;;;;;;;5.80;4.70;;;;;;;39.86;23.18;99478.19;5061943;28;20052;-61
2022/07/25 09:35:16;;;;;;;4.87;4.47;;;;;;;41.18;20.36;99469.84;5053742;28;20053;-61
2022/07/25 09:37:44;;;;;;;5.85;5.32;;;;;;;42.45;19.91;99471.75;5060365;28;20843;-61
2022/07/25 09:40:15;;;;;;;5.85;5.07;;;;;;;44.30;18.35;99479.72;5059229;28;20064;-61
2022/07/25 09:42:54;;;;;;;5.43;4.57;;;;;;;45.47;17.14;99501.16;5060852;28;20413;-61
2022/07/25 09:45:21;;;;;;;6.13;4.38;;;;;;;46.41;16.02;99496.94;5053808;28;20049;-61
2022/07/25 09:47:53;;;;;;;;;;;;;;;46.21;15.70;99502.44;5059419;28;20076;-62
2022/07/25 09:50:23;;;;;;;5.60;5.10;;;;;;;46.76;14.93;99489.19;5057764;28;20262;-58
2022/07/25 09:52:52;;;;;;;5.28;4.82;;;;;;;47.70;14.54;99497.06;5061202;28;20506;-58
2022/07/25 09:55:21;;;;;;;5.30;4.78;;;;;;;48.64;14.26;99508.31;5054111;28;20481;-58
2022/07/25 09:57:51;;;;;;;6.40;5.80;;;;;;;49.61;13.50;99496.47;5058841;28;20404;-58
2022/07/25 10:00:23;;;;;;;4.90;4.50;;;;;;;50.53;12.75;99497.94;5071218;28;20416;-58
2022/07/25 10:03:14;;;;;;;5.30;4.90;;;;;;;50.65;12.69;99497.31;5061596;28;20535;-58
2022/07/25 10:06:00;;;;;;;6.20;5.60;;;;;;;50.96;12.20;99491.56;5071673;28;20057;-60
2022/07/25 10:08:29;;;;;;;8.02;4.65;;;;;;;51.02;12.11;99486.09;5063484;28;20056;-58
2022/07/25 10:10:57;;;;;;;4.88;4.28;;;;;;;50.12;12.76;99487.97;5071348;28;20060;-58
2022/07/25 10:13:33;;;;;;;4.93;4.53;;;;;;;48.73;13.68;99492.84;5057767;28;20053;-58
2022/07/25 10:16:01;;;;;;;4.90;4.45;;;;;;;47.31;14.30;99487.63;5052956;28;20064;-58
2022/07/25 10:18:30;;;;;;;6.03;4.80;;;;;;;45.73;15.96;99493.38;5058662;28;20055;-61
2022/07/25 10:21:11;;;;;;;5.50;5.00;;;;;;;44.54;16.92;99494.03;5074192;28;20061;-60
2022/07/25 10:23:38;;;;;;;5.78;5.15;;;;;;;44.36;17.24;99503.84;5054806;28;20052;-60
2022/07/25 10:26:09;;;;;;;5.60;5.10;;;;;;;44.85;17.24;99502.25;5055441;28;20053;-60
2022/07/25 10:28:44;;;;;;;5.82;4.93;;;;;;;43.76;17.45;99500.56;5061636;28;20049;-58
2022/07/25 10:31:21;;;;;;;5.32;4.82;;;;;;;43.11;18.04;99519.91;5053287;28;20061;-59
2022/07/25 12:12:10;;;;;;;7.70;5.60;;;;;;;39.35;23.07;99516.41;3778346;28;22402;-58
2022/07/25 12:14:43;;;;;;;5.82;5.30;;;;;;;40.44;22.56;99523.81;4992570;28;20478;-58
2022/07/25 12:17:10;;;;;;;6.00;5.40;;;;;;;40.20;22.49;99522.44;4987831;28;20505;-58
2022/07/25 12:19:40;;;;;;;6.17;5.27;;;;;;;41.21;21.75;99537.31;4987000;28;20502;-59
2022/07/25 12:29:59;;;;;;;6.05;5.07;;;;;;;42.56;20.24;99529.28;4986819;28;20061;-61
2022/07/25 12:32:26;;;;;;;5.30;4.80;;;;;;;42.06;20.16;99533.91;4982124;28;20479;-62
2022/07/25 12:34:53;;;;;;;5.78;5.25;;;;;;;41.90;20.49;99554.09;4979555;28;20050;-61
2022/07/25 12:37:21;;;;;;;5.35;4.75;;;;;;;41.30;20.78;99542.75;4979956;28;20370;-61
2022/07/25 12:39:48;;;;;;;5.72;5.20;;;;;;;40.99;21.51;99550.81;4979571;28;20054;-62
2022/07/25 12:42:16;;;;;;;4.85;4.40;;;;;;;40.56;21.84;99545.72;4983584;28;20058;-62
2022/07/25 12:44:43;;;;;;;6.72;5.05;;;;;;;39.77;23.11;99550.09;4989251;28;20050;-62
2022/07/25 12:47:12;;;;;;;5.93;5.33;;;;;;;39.79;23.17;99552.47;4992547;28;20413;-62
2022/07/25 12:49:39;;;;;;;6.10;4.75;;;;;;;39.51;23.60;99552.66;4983630;28;20054;-58
2022/07/25 12:52:06;;;;;;;5.80;5.10;;;;;;;39.81;23.33;99557.75;4986531;28;20046;-59
2022/07/25 12:54:34;;;;;;;5.83;5.13;;;;;;;39.23;23.24;99562.31;4985816;28;20054;-59
2022/07/25 12:57:01;;;;;;;5.60;5.00;;;;;;;38.35;23.96;99569.41;4990240;28;20478;-58
2022/07/25 12:59:29;;;;;;;7.10;5.60;;;;;;;38.73;23.73;99569.88;4992071;28;20058;-58
2022/07/25 13:01:56;;;;;;;5.82;5.30;;;;;;;39.07;24.16;99574.84;4985901;28;20418;-58
2022/07/25 13:04:26;;;;;;;5.78;4.55;;;;;;;39.34;23.04;99567.31;4985486;28;20061;-58
2022/07/25 13:06:54;;;;;;;7.63;4.40;;;;;;;39.14;24.08;99569.25;4983344;28;20403;-57
2022/07/25 13:09:21;;;;;;;;;;;;;;;39.47;24.27;99560.91;4991723;28;20050;-58
2022/07/25 13:11:48;;;;;;;4.45;4.03;;;;;;;39.66;22.83;99558.13;4990633;28;20278;-58
2022/07/25 13:14:16;;;;;;;4.40;3.95;;;;;;;40.03;22.71;99568.50;4986404;28;20065;-58
2022/07/25 13:16:43;;;;;;;5.88;4.00;;;;;;;40.28;21.97;99561.38;4986116;28;20054;-58
2022/07/25 13:19:10;;;;;;;6.97;4.03;;;;;;;40.49;21.71;99564.66;4979622;28;20054;-59
2022/07/25 13:21:39;;;;;;;4.72;4.05;;;;;;;39.82;21.87;99568.06;4987224;28;20485;-59
2022/07/25 13:24:07;;;;;;;5.30;3.80;;;;;;;39.38;22.83;99562.75;4988826;28;20050;-58
2022/07/25 13:26:35;;;;;;;5.70;4.50;;;;;;;39.45;22.51;99558.50;4988925;28;20066;-60